Weather reports worldwide

Advertisment
Punta Galea Golf, Spain (8059): temperature & dewpoint: 16.02.2019 22:00:00 - 22.02.2019 22:00:00 (CET)Punta Galea Golf, Spain (8059): wind speed & gusts: 16.02.2019 22:00:00 - 22.02.2019 22:00:00 (CET)Punta Galea Golf, Spain (8059): wind direction: 16.02.2019 22:00:00 - 22.02.2019 22:00:00 (CET)Punta Galea Golf, Spain (8059): reduced air pressure: 16.02.2019 22:00:00 - 22.02.2019 22:00:00 (CET)Punta Galea Golf, Spain (8059): precipitation: 16.02.2019 22:00:00 - 22.02.2019 22:00:00 (CET)
Date & Time tt [°C] td [°C] ff [km/h] ff [kn] fx [km/h] fx [kn] dd ppp [hPa] rr [mm]
22.02.2019 22:00:00 13,3 2,3 8 4 16 9 S 1029,1 0,0
22.02.2019 21:00:00 15,1 0,9 7 4 18 10 S 1029,0 0,0
22.02.2019 20:00:00 16,7 1,5 8 5 16 9 SSE 1029,1 0,0
22.02.2019 19:00:00 17,3 2,1 8 4 23 12 SE 1028,8 -
22.02.2019 18:00:00 19,4 3,6 9 5 14 8 ESE 1028,2 0,0
22.02.2019 17:00:00 21,2 4,3 2 1 10 5 NNE 1028,2 0,0
22.02.2019 16:00:00 21,5 4,1 5 3 16 9 E 1028,5 0,0
22.02.2019 15:00:00 22,1 4,1 8 4 21 11 SSW 1028,5 0,0
22.02.2019 14:00:00 20,7 4,3 11 6 24 13 SSE 1029,2 0,0
22.02.2019 13:00:00 19,6 5,3 11 6 24 13 SSE 1029,7 -
22.02.2019 12:00:00 18,3 5,1 12 6 23 12 SSE 1030,3 0,0
22.02.2019 11:00:00 16,4 5,3 11 6 22 12 SSE 1030,8 0,0
22.02.2019 10:00:00 14,2 5,0 11 6 21 11 SSE 1031,2 0,0
22.02.2019 09:00:00 12,1 4,6 11 6 21 11 SSE 1031,2 0,0
22.02.2019 08:00:00 11,4 4,3 10 6 19 11 SSE 1030,7 0,0
22.02.2019 07:00:00 11,3 4,8 11 6 19 10 SSE 1030,4 -
22.02.2019 06:00:00 11,2 4,8 11 6 22 12 S 1030,3 0,0
22.02.2019 05:00:00 11,6 5,3 12 7 22 12 S 1030,0 0,0
22.02.2019 04:00:00 11,5 5,3 11 6 21 12 SSE 1030,1 0,0
22.02.2019 03:00:00 11,6 5,5 11 6 21 11 S 1030,2 0,0
22.02.2019 02:00:00 12,1 5,8 12 7 23 12 SSE 1030,2 0,0
22.02.2019 01:00:00 12,7 5,8 10 6 21 11 S 1030,4 -
22.02.2019 00:00:00 12,7 5,8 11 6 17 9 S 1030,2 0,0
21.02.2019 23:00:00 13,1 5,8 9 5 16 9 S 1030,0 0,0
21.02.2019 22:00:00 13,4 5,8 9 5 16 9 S 1029,4 0,0
21.02.2019 21:00:00 13,8 6,1 8 5 12 7 SSE 1028,8 0,0
21.02.2019 20:00:00 13,8 7,6 5 3 9 5 S 1028,5 0,0
21.02.2019 19:00:00 13,7 8,8 7 4 9 5 WSW 1027,6 -
21.02.2019 18:00:00 19,0 8,7 2 1 9 5 SW 1026,7 0,0
21.02.2019 17:00:00 20,6 3,8 4 2 16 9 S 1026,4 0,0
21.02.2019 16:00:00 21,2 3,8 6 3 24 13 SW 1026,4 0,0
21.02.2019 15:00:00 20,7 4,6 6 3 29 16 SW 1026,3 0,0
21.02.2019 14:00:00 19,7 6,1 8 4 22 12 S 1026,6 0,0
21.02.2019 13:00:00 18,7 5,9 10 5 21 12 S 1026,9 -
21.02.2019 12:00:00 17,3 6,2 6 4 26 14 SSE 1027,3 0,0
21.02.2019 11:00:00 15,2 5,9 13 7 23 13 S 1027,1 0,0
21.02.2019 10:00:00 13,2 6,1 10 5 22 12 SSE 1027,1 0,0
21.02.2019 09:00:00 10,9 5,6 9 5 16 9 SSE 1026,9 0,0
21.02.2019 08:00:00 9,5 4,6 9 5 17 9 SSE 1026,3 0,0
21.02.2019 07:00:00 9,2 5,0 8 5 18 10 SSE 1026,1 -
21.02.2019 06:00:00 8,9 5,1 9 5 16 9 S 1025,7 0,0
21.02.2019 05:00:00 9,2 5,1 10 5 18 10 S 1025,6 0,0
21.02.2019 04:00:00 9,0 5,8 11 6 19 10 S 1025,8 0,0
21.02.2019 03:00:00 8,9 5,8 10 6 16 9 S 1025,9 0,0
21.02.2019 02:00:00 9,0 6,2 9 5 19 10 SSE 1025,6 0,0
21.02.2019 01:00:00 8,7 7,3 8 4 16 9 S 1025,5 -
21.02.2019 00:00:00 8,8 8,0 8 4 14 8 S 1025,4 0,0
20.02.2019 23:00:00 9,5 8,9 8 4 15 8 S 1025,3 0,0
20.02.2019 22:00:00 9,7 9,0 9 5 14 8 S 1025,2 0,0
20.02.2019 21:00:00 10,0 9,2 9 5 13 7 S 1025,0 0,0
20.02.2019 20:00:00 10,9 9,8 8 4 10 6 SSW 1024,7 0,0
20.02.2019 19:00:00 11,8 10,5 4 2 11 6 N 1024,1 -
20.02.2019 18:00:00 14,2 10,6 1 1 11 6 N 1023,3 0,0
20.02.2019 17:00:00 14,4 11,2 6 3 13 7 NNE 1023,1 0,0
20.02.2019 16:00:00 14,6 11,0 6 4 13 7 NNE 1022,8 0,0
20.02.2019 15:00:00 15,6 9,9 5 3 13 7 W 1023,0 0,0
20.02.2019 14:00:00 17,0 6,8 5 3 16 9 S 1023,4 0,0
20.02.2019 13:00:00 16,3 7,6 6 3 18 10 S 1023,8 -
20.02.2019 12:00:00 15,1 7,1 10 6 22 12 S 1023,9 0,0
20.02.2019 11:00:00 13,6 6,7 13 7 26 14 S 1023,6 0,0
20.02.2019 10:00:00 11,5 6,7 11 6 22 12 SSE 1023,3 0,0
20.02.2019 09:00:00 9,6 5,9 10 6 22 12 S 1022,9 0,0
20.02.2019 08:00:00 8,3 5,6 13 7 22 12 S 1022,0 0,0
20.02.2019 07:00:00 7,9 5,3 11 6 23 12 S 1021,4 -
20.02.2019 06:00:00 8,2 5,9 12 7 21 11 S 1021,0 0,0
20.02.2019 05:00:00 7,8 6,1 9 5 16 9 S 1021,1 0,0
20.02.2019 04:00:00 7,5 6,4 10 5 16 9 S 1021,5 0,0
20.02.2019 03:00:00 7,3 6,5 5 3 12 6 S 1021,9 0,0
20.02.2019 02:00:00 7,3 6,7 7 4 12 7 S 1021,6 0,0
20.02.2019 01:00:00 7,2 6,5 4 2 13 7 S 1021,7 -
20.02.2019 00:00:00 7,3 6,7 6 4 13 7 S 1021,7 0,0
19.02.2019 23:00:00 7,7 7,1 8 4 13 7 S 1021,7 0,0
19.02.2019 22:00:00 7,9 7,1 5 3 9 5 S 1021,8 0,0
19.02.2019 21:00:00 8,3 7,6 6 3 9 5 SSE 1021,5 0,0
19.02.2019 20:00:00 8,7 7,8 1 1 7 4 SSE 1021,6 0,0
19.02.2019 19:00:00 10,1 9,0 5 3 12 6 NNE 1021,2 -
19.02.2019 18:00:00 10,8 9,4 7 4 14 8 NE 1020,8 0,0
19.02.2019 17:00:00 11,1 9,0 8 5 12 7 NE 1021,0 0,0
19.02.2019 16:00:00 11,7 9,4 6 3 11 6 NNE 1021,6 0,0
19.02.2019 15:00:00 10,6 8,9 6 4 10 6 N 1022,4 0,0
19.02.2019 14:00:00 10,1 8,9 2 1 7 4 NNE 1023,2 0,0
19.02.2019 13:00:00 9,9 9,2 2 1 8 4 NW 1023,9 -
19.02.2019 12:00:00 9,1 8,5 4 2 9 5 W 1024,4 0,0
19.02.2019 11:00:00 8,5 8,3 3 2 11 6 W 1024,6 0,0
19.02.2019 10:00:00 8,2 7,8 9 5 14 8 WNW 1024,5 0,0
19.02.2019 09:00:00 7,8 7,6 6 3 15 8 W 1024,3 0,1
19.02.2019 08:00:00 7,7 7,4 6 3 15 8 W 1023,7 0,1
19.02.2019 07:00:00 7,7 7,4 10 5 19 10 WNW 1023,4 -
19.02.2019 06:00:00 7,8 7,6 10 5 19 10 WNW 1023,4 0,0
19.02.2019 05:00:00 7,7 7,4 9 5 30 16 WNW 1023,4 0,3
19.02.2019 04:00:00 8,4 8,1 9 5 19 10 NW 1023,6 0,0
19.02.2019 03:00:00 8,4 8,1 9 5 24 13 NNW 1023,9 0,0
19.02.2019 02:00:00 8,3 8,0 11 6 32 18 NW 1023,9 0,1
19.02.2019 01:00:00 8,3 8,0 15 8 39 21 NW 1023,8 -
19.02.2019 00:00:00 8,9 8,4 22 12 41 22 WNW 1023,3 0,0
18.02.2019 23:00:00 8,9 8,3 15 8 35 19 W 1022,8 0,3
18.02.2019 22:00:00 11,0 10,0 2 1 7 4 NNW 1022,3 0,0
18.02.2019 21:00:00 11,0 10,0 3 2 11 6 N 1021,7 0,0
18.02.2019 20:00:00 11,1 10,3 4 2 12 6 N 1021,4 0,0
18.02.2019 19:00:00 11,1 10,2 7 4 16 9 NNE 1020,8 -
18.02.2019 18:00:00 11,4 10,4 7 4 18 10 NNW 1020,1 0,0
18.02.2019 17:00:00 11,9 9,4 6 4 18 10 N 1019,6 0,0
18.02.2019 16:00:00 13,0 5,6 8 4 21 11 NE 1018,8 0,0
18.02.2019 15:00:00 12,9 5,3 11 6 16 9 NE 1018,6 0,0
18.02.2019 14:00:00 14,1 5,9 6 3 11 6 NNE 1019,0 0,0
18.02.2019 13:00:00 13,5 5,1 5 3 9 5 NNE 1019,9 -
18.02.2019 12:00:00 12,6 4,3 5 3 10 5 N 1020,4 0,0
18.02.2019 11:00:00 12,9 3,2 3 2 11 6 SSE 1020,6 0,0
18.02.2019 10:00:00 11,6 3,4 4 2 12 6 WSW 1020,7 0,0
18.02.2019 09:00:00 10,6 2,9 8 4 13 7 S 1020,3 0,0
18.02.2019 08:00:00 8,9 4,3 4 2 9 5 ESE 1019,7 0,0
18.02.2019 07:00:00 10,4 3,2 5 3 19 11 S 1019,5 -
18.02.2019 06:00:00 9,9 7,1 3 2 12 7 ENE 1019,2 0,0
18.02.2019 05:00:00 9,9 5,3 1 0 13 7 E 1018,5 0,0
18.02.2019 04:00:00 10,7 -2,7 3 2 14 7 SE 1018,4 0,0
18.02.2019 03:00:00 10,5 -3,0 2 1 9 5 ESE 1018,4 0,0
18.02.2019 02:00:00 10,6 -2,7 2 1 10 5 W 1018,0 0,0
18.02.2019 01:00:00 11,4 -3,3 6 3 14 8 SE 1017,9 -
18.02.2019 00:00:00 12,3 -2,7 8 4 12 7 SSE 1018,5 0,0
17.02.2019 23:00:00 11,2 -3,3 3 2 13 7 S 1018,4 0,0
17.02.2019 22:00:00 12,3 -3,0 5 3 14 8 S 1018,5 0,0
17.02.2019 21:00:00 12,9 -3,0 8 4 16 8 S 1018,5 0,0
17.02.2019 20:00:00 13,9 -2,5 4 2 11 6 S 1018,3 0,0
17.02.2019 19:00:00 15,7 -2,0 3 2 8 4 SSE 1018,2 -
17.02.2019 18:00:00 18,3 -0,5 3 2 9 5 SSW 1017,9 0,0
17.02.2019 17:00:00 18,8 -1,2 5 3 16 8 SSW 1018,3 0,0
17.02.2019 16:00:00 19,2 -1,4 10 5 24 13 SSW 1018,9 0,0
17.02.2019 15:00:00 20,1 0,0 9 5 23 12 SSW 1019,5 0,0
17.02.2019 14:00:00 19,4 0,4 11 6 23 13 SSW 1020,3 0,0
17.02.2019 13:00:00 18,0 -0,3 8 4 52 28 SSE 1021,4 -
17.02.2019 12:00:00 16,6 -1,0 16 9 43 23 S 1021,4 0,0
17.02.2019 11:00:00 15,4 -1,2 18 10 40 22 S 1021,2 0,0
17.02.2019 10:00:00 13,8 -2,2 11 6 31 17 SSE 1021,8 0,0
17.02.2019 09:00:00 12,5 -2,5 14 8 29 16 S 1021,8 0,0
17.02.2019 08:00:00 11,4 -3,6 14 8 29 15 S 1021,2 0,0
17.02.2019 07:00:00 11,8 -3,3 12 7 27 15 SE 1021,1 -
17.02.2019 06:00:00 12,0 -3,0 15 8 30 16 SE 1020,8 0,0
17.02.2019 05:00:00 12,3 -2,5 11 6 22 12 SE 1020,6 0,0
17.02.2019 04:00:00 13,3 -1,4 6 4 20 11 SE 1020,9 0,0
17.02.2019 03:00:00 12,2 -1,4 8 4 31 17 SE 1021,3 0,0
17.02.2019 02:00:00 12,0 -1,2 9 5 21 11 ESE 1021,9 0,0
17.02.2019 01:00:00 13,6 -0,7 10 5 27 15 S 1021,7 -
17.02.2019 00:00:00 13,7 -1,2 13 7 37 20 S 1021,5 0,0
16.02.2019 23:00:00 14,5 -0,7 19 10 37 20 S 1021,5 0,0
16.02.2019 22:00:00 15,3 0,0 19 10 38 20 SSW 1021,5 0,0

tt = temperature
td = dewpoint
ff = wind speed
fx = gusts
dd = wind direction
ppp = reduced air pressure
rr = precipitation

Next stations